createdAt,value
2018-12-27T05:12:25.941Z,100271.64
2018-12-27T05:22:54.165Z,100273.36
2018-12-27T05:25:44.945Z,100275.43
2018-12-27T05:29:01.966Z,100276.12
2018-12-27T05:31:54.564Z,100294.63
2018-12-27T05:35:06.609Z,100294.67
2018-12-27T05:41:09.965Z,100307.70
2018-12-27T05:43:47.785Z,100302.03
2018-12-27T05:46:26.571Z,100309.77
2018-12-27T05:52:14.963Z,100314.08
2018-12-27T05:55:06.842Z,100314.60
2018-12-27T06:01:22.057Z,100320.24
2018-12-27T06:04:33.692Z,100323.66
2018-12-27T06:07:40.743Z,100326.27
2018-12-27T06:10:30.262Z,100326.62
2018-12-27T06:17:01.545Z,100333.40
2018-12-27T06:20:10.090Z,100343.73
2018-12-27T06:22:59.603Z,100349.80
2018-12-27T06:26:12.381Z,100353.80
2018-12-27T06:32:17.543Z,100358.34
2018-12-27T06:35:24.027Z,100365.70
2018-12-27T06:38:14.769Z,100364.44
2018-12-27T06:41:59.514Z,100353.67
2018-12-27T06:44:51.182Z,100351.52
2018-12-27T06:47:57.816Z,100351.16
2018-12-27T07:14:21.984Z,100360.06
2018-12-27T07:17:11.755Z,100354.46
2018-12-27T07:20:21.671Z,100359.13
2018-12-27T07:26:02.015Z,100354.74
2018-12-27T07:28:42.629Z,100350.80
2018-12-27T07:31:16.498Z,100351.89
2018-12-27T07:33:50.700Z,100357.36
2018-12-27T07:36:25.582Z,100366.01
2018-12-27T07:38:59.587Z,100374.98
2018-12-27T07:44:35.066Z,100369.14
2018-12-27T07:47:10.312Z,100380.76
2018-12-27T07:49:40.597Z,100384.62
2018-12-27T07:52:18.762Z,100383.31
2018-12-27T07:54:49.812Z,100388.08
2018-12-27T07:57:27.163Z,100395.84
2018-12-27T07:59:57.435Z,100404.06
2018-12-27T08:05:26.890Z,100402.42
2018-12-27T08:08:02.808Z,100405.00
2018-12-27T08:10:33.111Z,100413.69
2018-12-27T08:13:09.112Z,100414.94
2018-12-27T16:46:57.303Z,100423.14
2018-12-27T16:50:14.114Z,100422.12
2018-12-27T16:53:20.595Z,100429.20
2018-12-27T16:56:29.659Z,100424.72
2018-12-27T16:59:22.701Z,100430.36
2018-12-27T17:12:09.086Z,100436.22
2018-12-27T17:15:16.324Z,100437.88
2018-12-27T17:18:49.300Z,100431.42
2018-12-27T17:25:11.212Z,100443.07
2018-12-27T17:28:00.699Z,100439.56
2018-12-27T17:37:49.392Z,100437.99
2018-12-27T17:40:55.599Z,100436.70
2018-12-27T17:43:45.516Z,100443.70
2018-12-27T17:46:44.030Z,100436.02
2018-12-27T17:50:00.683Z,100431.73
2018-12-27T17:53:24.350Z,100429.59
2018-12-27T17:56:13.858Z,100431.74
2018-12-27T17:59:38.765Z,100436.16
2018-12-27T18:08:59.162Z,100436.88
2018-12-27T18:12:05.125Z,100444.92
2018-12-27T18:14:59.102Z,100450.39
2018-12-27T18:18:08.055Z,100446.91
2018-12-27T18:23:56.887Z,100460.08
2018-12-27T18:27:04.579Z,100454.80
2018-12-27T18:29:54.635Z,100455.99
2018-12-27T18:33:00.780Z,100455.01
2018-12-27T18:36:08.943Z,100456.96
2018-12-27T18:39:16.362Z,100465.97
2018-12-27T18:45:19.587Z,100472.98
2018-12-27T18:48:26.067Z,100462.61
2018-12-27T18:51:17.235Z,100461.17
2018-12-27T18:54:28.978Z,100459.20
2018-12-27T18:57:35.285Z,100467.98
2018-12-27T19:03:51.815Z,100467.26
2018-12-27T19:07:01.378Z,100467.69
2018-12-27T19:09:51.836Z,100474.88
2018-12-27T19:13:15.490Z,100474.07
2018-12-27T19:16:06.567Z,100481.44
2018-12-27T19:19:30.226Z,100478.25
2018-12-27T19:25:26.138Z,100485.60
2018-12-27T19:28:35.163Z,100483.77
2018-12-27T19:31:26.213Z,100481.13
2018-12-27T19:37:52.144Z,100485.83
2018-12-27T21:10:33.221Z,100456.52
2018-12-27T21:26:54.688Z,100437.55
2018-12-27T21:30:07.642Z,100447.22
2018-12-27T21:32:58.866Z,100445.62
2018-12-27T21:36:24.309Z,100440.11
2018-12-27T21:46:43.283Z,100434.23
2018-12-27T21:49:54.466Z,100427.30
2018-12-27T21:53:21.993Z,100424.73
2018-12-27T21:56:51.123Z,100421.98
2018-12-27T21:59:58.169Z,100428.52
2018-12-27T22:06:28.825Z,100415.83
2018-12-27T22:23:28.367Z,100405.13
2018-12-27T22:26:23.461Z,100407.91
2018-12-27T22:29:12.861Z,100411.09
2018-12-27T22:32:19.649Z,100413.05
2018-12-27T22:38:52.610Z,100402.03
2018-12-27T22:42:03.521Z,100396.09
2018-12-27T22:44:55.162Z,100384.61
2018-12-27T22:58:25.657Z,100377.30
2018-12-27T23:11:38.284Z,100371.73
2018-12-27T23:21:33.237Z,100360.23
2018-12-27T23:27:46.407Z,100362.19
